Friday, October 31, 2014
14:20 UTC
  |  Log In   |  Register Free
Airport Search:

Yellowstone Regional Airport
(KCOD)

Yellowstone Regional Airport Diagram
No Airport Diagram Available

FAA data valid effective September 18, 2014 - November 13, 2014 (unless otherwise noted).

 
 
 
 
 
 
 
 
 
 
 
 
 
 

Current Aviation Weather for Yellowstone Regional Airport (KCOD)

The most recent METAR observation for KCOD was updated at: 1411
METAR Summary (Translated METAR)
KCOD
311355Z 00000KT 10SM CLR 02/M03 A3003 RMK AO1
KPOY
311355Z AUTO 13010KT 10SM CLR 04/M05 A3002 RMK AO2
(23.1 nm NE from KCOD)
KU68
311355Z AUTO 04003KT 10SM CLR 03/M05 A3004 RMK AO2 PWINO
(34.1 nm NE from KCOD)
TAF Summary (Translated TAF)
KCOD
311122Z 3112/0112 18008KT P6SM SCT130 BKN200 FM311800 14007KT P6SM SCT130 BKN200 FM010200 20006KT P6SM SCT130 BKN200 FM010600 23012G18KT P6SM BKN150 AMD LTD TO CLD VIS AND WIND
  Airport Weather Conditions for KCOD

 Current Weather at COD
36° F
Fair
North winds at 0.0 mph
COD NOAA Radar

Pressure: 30.03 in
Humidity: 70%
Wind: Calm
Dew Point: 26.6°F
Visibility: 10.00 mi


Airport Weather Forecast for KCOD

Translated METAR and TAF for KCOD
Translated METAR for KCOD (1415 UTC 31 October 2014)
found at http://aviationweather.gov/adds/metars/
 
METAR text: KCOD 311355Z 00000KT 10SM CLR 02/M03 A3003 RMK AO1
Conditions at: KCOD (CODY , WY, US) observed 1355 UTC 31 October 2014
Temperature: 2.0°C (36°F)
Dewpoint: -3.0°C (27°F) [RH = 69%]
Pressure (altimeter): 30.03 inches Hg (1017.0 mb)
Winds: calm
Visibility: 10 or more miles (16+ km)
Ceiling: at least 12,000 feet AGL
Clouds: sky clear below 12,000 feet AGL
Weather: no significant weather observed at this time
Translated TAF for KCOD
Forecast for: KCOD (CODY , WY, US)
TAF Text: KCOD 311122Z 3112/0112 18008KT P6SM SCT130 BKN200
Forecast period: 1200 to 1800 UTC 31 October 2014
Forecast type: FROM: standard forecast or significant change
Winds: from the S (180 degrees) at 9 MPH (8 knots; 4.2 m/s)
Visibility: 6 or more miles (10+ km)
Ceiling: 20000 feet AGL
Clouds: scattered clouds at 13000 feet AGL
broken clouds at 20000 feet AGL
Weather: no significant weather forecast for this period
TAF Text: FM311800 14007KT P6SM SCT130 BKN200
Forecast period: 1800 UTC 31 October 2014 to 0200 UTC 01 November 2014
Forecast type: FROM: standard forecast or significant change
Winds: from the SE (140 degrees) at 8 MPH (7 knots; 3.6 m/s)
Visibility: 6 or more miles (10+ km)
Ceiling: 20000 feet AGL
Clouds: scattered clouds at 13000 feet AGL
broken clouds at 20000 feet AGL
Weather: no significant weather forecast for this period
TAF Text: FM010200 20006KT P6SM SCT130 BKN200
Forecast period: 0200 to 0600 UTC 01 November 2014
Forecast type: FROM: standard forecast or significant change
Winds: from the SSW (200 degrees) at 7 MPH (6 knots; 3.1 m/s)
Visibility: 6 or more miles (10+ km)
Ceiling: 20000 feet AGL
Clouds: scattered clouds at 13000 feet AGL
broken clouds at 20000 feet AGL
Weather: no significant weather forecast for this period
TAF Text: FM010600 23012G18KT P6SM BKN150 AMD LTD TO CLD VIS AND WIND
Forecast period: 0600 to 1200 UTC 01 November 2014
Forecast type: FROM: standard forecast or significant change
Winds: from the SW (230 degrees) at 14 MPH (12 knots; 6.2 m/s)
gusting to 21 MPH (18 knots; 9.4 m/s)
Visibility: 6 or more miles (10+ km)
Ceiling: 15000 feet AGL
Clouds: broken clouds at 15000 feet AGL
Weather: no significant weather forecast for this period

Find All Airport Services Find A Hotel Find A Rental Car Find A Golf Course Find A Restaurant $100 Hamburger



FBO's on the Field
FBO Company Facility Photos Services Transportation Aviation Fuel Prices: Prices include tax
Catering Weather Repair Courtesy Rental Type 100LL JetA JetA+ MOGAS 8087
 
Choice Aviation, LLC

This FBO has not yet been rated
FS:Avfuel
Last Updated: Oct-27
Login to update fuel prices
SS:
Contact Choice Aviation, LLCMore FBO Information
 
Add another FBO Facility Photos Catering Weather Repair Courtesy Rental Type 100LL JetA JetA+ MOGAS 8087
Services Transportation Aviation Fuel Prices: Prices include tax


model-print
model-print
model-print
model-print